Addison Township, Michigan
Current Conditions -  °F | °C
As of 5:14 AM on Tuesday 21 Oct 2014 (Local Time) from KD95 Reporting Station
Overcast Overcast  
Wind Chill: 43°   Ceiling: 700
Heat Index: 46°   Visibility: 7mi
Dew Point: 45°   Wind: 6mph
Humidity: 95%   Direction: 360°N
Pressure: 29.9"   Gusts: NA
Location:  42.8434°N, 83.1398°W
Report Text: KD95 210914Z AUTO 36005KT 7SM OVC007 08/07 A2990 RMK AO2 T00780070
Loading
Personal Weather Stations






























Interactive Weather Map New forecast layout! Learn more

10-Day Weather Forecast

Advertisements
Track Severe Weather on mobile